Terminal Aerodrome Forecast
Issued by NWS Spokane, WA

Current Version | Previous Version | Text Only | Print | Product List | Glossary On
Versions: 1 2 3 4 5 6 7 8 9 10 11 12 13 14 15 16
000
FTUS46 KOTX 011724
TAFLWS
TAF
KLWS 011724Z 0118/0218 18004KT P6SM BKN060 BKN100
     FM012000 27005KT P6SM SCT060 BKN110
     FM020400 24004KT P6SM FEW100=

USA.gov is the U.S. government's official web portal to all federal, state and local government web resources and services.